Time;durP1;ratioP1;P1;durP2;ratioP2;P2;SDS_P1;SDS_P2;PMS_P1;PMS_P2;Temp;Humidity;BMP_temperature;BMP_pressure;BME280_temperature;BME280_humidity;BME280_pressure;Samples;Min_cycle;Max_cycle;Signal;HPM_P1;HPM_P2
2022/07/08 00:01:02;;;;;;;16.58;2.15;;;15.40;99.90;;;;;;4997301;28;20238;-85
2022/07/08 00:03:28;;;;;;;17.35;2.40;;;15.40;99.90;;;;;;4997574;28;20179;-85
2022/07/08 00:05:54;;;;;;;11.48;2.58;;;15.40;99.90;;;;;;4997376;28;20529;-86
2022/07/08 00:08:20;;;;;;;7.43;2.30;;;15.40;99.90;;;;;;4997355;28;20195;-85
2022/07/08 00:10:51;;;;;;;15.05;3.05;;;15.40;99.90;;;;;;4997241;28;20180;-85
2022/07/08 00:13:17;;;;;;;13.00;2.80;;;15.40;99.90;;;;;;5013391;28;20203;-86
2022/07/08 00:15:43;;;;;;;12.02;2.47;;;15.40;99.90;;;;;;5013563;28;20274;-85
2022/07/08 00:18:09;;;;;;;10.98;2.60;;;15.40;99.90;;;;;;5013277;28;20187;-86
2022/07/08 00:20:35;;;;;;;8.10;2.45;;;15.40;99.90;;;;;;5013398;28;20180;-84
2022/07/08 00:23:01;;;;;;;8.23;2.00;;;15.40;99.90;;;;;;5013267;28;20295;-86
2022/07/08 00:25:27;;;;;;;10.85;2.60;;;15.40;99.90;;;;;;5013265;28;20200;-85
2022/07/08 00:27:52;;;;;;;12.90;2.72;;;15.40;99.90;;;;;;5012704;28;20176;-85
2022/07/08 00:30:19;;;;;;;12.30;3.00;;;15.30;99.90;;;;;;5010036;28;20234;-85
2022/07/08 00:32:45;;;;;;;12.20;3.45;;;15.30;99.90;;;;;;5006404;28;20190;-84
2022/07/08 00:35:10;;;;;;;11.65;2.47;;;15.40;99.90;;;;;;4996943;28;20302;-85
2022/07/08 00:37:36;;;;;;;10.27;2.22;;;15.40;99.90;;;;;;4996472;28;20614;-85
2022/07/08 00:40:03;;;;;;;11.60;3.00;;;15.30;99.90;;;;;;4996554;28;20550;-86
2022/07/08 00:42:35;;;;;;;17.58;3.00;;;15.30;99.90;;;;;;4996584;28;20630;-86
2022/07/08 00:45:01;;;;;;;9.05;2.15;;;15.20;99.90;;;;;;5017579;28;20186;-84
2022/07/08 00:47:26;;;;;;;13.38;2.08;;;15.20;99.90;;;;;;5016297;28;20228;-85
2022/07/08 00:49:52;;;;;;;12.40;2.30;;;15.20;99.90;;;;;;5016139;28;20275;-84
2022/07/08 00:52:19;;;;;;;9.10;1.95;;;15.20;99.90;;;;;;5014721;28;20178;-84
2022/07/08 00:54:45;;;;;;;11.55;2.47;;;15.20;99.90;;;;;;5015835;28;20261;-85
2022/07/08 00:57:12;;;;;;;13.80;2.75;;;15.30;99.90;;;;;;5015297;28;20660;-84
2022/07/08 00:59:38;;;;;;;9.07;2.20;;;15.20;99.90;;;;;;5015021;28;20234;-82
2022/07/08 01:02:04;;;;;;;17.13;2.63;;;15.30;99.90;;;;;;5015947;28;20175;-85
2022/07/08 01:04:31;;;;;;;12.23;2.50;;;15.30;99.90;;;;;;5015827;28;20644;-83
2022/07/08 01:06:57;;;;;;;13.65;2.67;;;15.20;99.90;;;;;;5017087;28;20178;-84
2022/07/08 01:09:22;;;;;;;12.23;2.67;;;15.20;99.90;;;;;;5015721;28;20191;-85
2022/07/08 01:11:52;;;;;;;14.68;2.00;;;15.20;99.90;;;;;;5014866;28;20656;-85
2022/07/08 01:14:18;;;;;;;10.35;2.67;;;15.10;99.90;;;;;;4995797;28;20249;-86
2022/07/08 01:16:44;;;;;;;18.50;2.75;;;15.20;99.90;;;;;;4995980;28;20603;-84
2022/07/08 01:19:10;;;;;;;8.60;2.25;;;15.20;99.90;;;;;;4997207;28;20172;-84
2022/07/08 01:21:36;;;;;;;13.05;2.90;;;15.20;99.90;;;;;;5014105;28;20285;-85
2022/07/08 01:24:02;;;;;;;10.88;2.47;;;15.20;99.90;;;;;;5016412;28;20246;-84
2022/07/08 01:26:28;;;;;;;14.02;2.38;;;15.20;99.90;;;;;;5016432;28;20207;-85
2022/07/08 01:28:55;;;;;;;8.68;2.28;;;15.10;99.90;;;;;;5016511;28;20171;-84
2022/07/08 01:31:21;;;;;;;11.68;2.20;;;15.10;99.90;;;;;;5015511;28;20186;-85
2022/07/08 01:33:47;;;;;;;9.98;2.28;;;15.10;99.90;;;;;;5015407;28;20222;-87
2022/07/08 01:36:13;;;;;;;13.95;2.72;;;15.20;99.90;;;;;;4992046;28;20184;-85
2022/07/08 01:38:38;;;;;;;8.98;1.83;;;15.20;99.90;;;;;;4975933;28;20188;-85
2022/07/08 01:41:05;;;;;;;11.68;2.92;;;15.20;99.90;;;;;;4976173;28;20177;-85
2022/07/08 01:43:31;;;;;;;16.48;3.40;;;15.10;99.90;;;;;;4989830;28;20183;-85
2022/07/08 01:45:57;;;;;;;13.65;3.03;;;15.00;99.90;;;;;;4995932;28;20187;-86
2022/07/08 01:48:22;;;;;;;8.23;2.25;;;15.00;99.90;;;;;;5015179;28;20218;-86
2022/07/08 01:50:48;;;;;;;11.05;2.75;;;15.00;99.90;;;;;;5014699;28;20185;-85
2022/07/08 01:53:14;;;;;;;13.50;2.05;;;15.10;99.90;;;;;;5014855;28;20186;-84
2022/07/08 01:55:40;;;;;;;15.88;2.45;;;15.10;99.90;;;;;;5014891;28;20172;-87
2022/07/08 01:58:06;;;;;;;10.10;2.30;;;15.00;99.90;;;;;;5014238;28;20307;-85
2022/07/08 02:00:32;;;;;;;11.48;2.50;;;15.00;99.90;;;;;;5015054;28;20329;-84
2022/07/08 02:02:59;;;;;;;17.27;2.60;;;15.00;99.90;;;;;;5014146;28;20179;-83
2022/07/08 02:05:26;;;;;;;16.45;2.25;;;15.00;99.90;;;;;;5014426;28;20176;-82
2022/07/08 02:07:52;;;;;;;11.43;2.63;;;15.00;99.90;;;;;;5014462;28;20180;-84
2022/07/08 02:10:18;;;;;;;11.35;2.47;;;15.00;99.90;;;;;;5015122;28;20260;-83
2022/07/08 02:12:44;;;;;;;9.18;2.33;;;15.00;99.90;;;;;;5006136;28;20583;-84
2022/07/08 02:15:10;;;;;;;10.73;2.58;;;15.00;99.90;;;;;;5011116;28;20230;-85
2022/07/08 02:17:39;;;;;;;13.60;2.42;;;15.00;99.90;;;;;;5010835;28;20619;-86
2022/07/08 02:20:06;;;;;;;10.43;2.20;;;14.90;99.90;;;;;;4994064;28;20669;-85
2022/07/08 02:22:33;;;;;;;7.65;2.00;;;14.90;99.90;;;;;;4993908;28;20600;-85
2022/07/08 02:24:59;;;;;;;14.45;2.50;;;14.90;99.90;;;;;;4993812;28;20566;-85
2022/07/08 02:27:25;;;;;;;13.13;1.90;;;14.80;99.90;;;;;;5011052;28;20183;-85
2022/07/08 02:29:51;;;;;;;8.43;1.77;;;14.80;99.90;;;;;;5010666;28;20183;-84
2022/07/08 02:32:18;;;;;;;13.40;2.47;;;14.80;99.90;;;;;;5001030;28;20283;-85
2022/07/08 02:34:44;;;;;;;11.05;2.33;;;14.80;99.90;;;;;;5010865;28;20658;-85
2022/07/08 02:37:10;;;;;;;9.30;2.45;;;14.80;99.90;;;;;;4995901;28;20180;-86
2022/07/08 02:39:36;;;;;;;10.82;2.10;;;14.70;99.90;;;;;;4995948;28;20186;-85
2022/07/08 02:42:02;;;;;;;10.18;2.25;;;14.70;99.90;;;;;;5010917;28;20172;-84
2022/07/08 02:44:28;;;;;;;13.35;2.03;;;14.70;99.90;;;;;;5010607;28;20239;-86
2022/07/08 02:46:54;;;;;;;9.63;2.08;;;14.80;99.90;;;;;;5011120;28;20211;-85
2022/07/08 02:49:19;;;;;;;9.48;2.00;;;14.80;99.90;;;;;;4994369;28;20270;-86
2022/07/08 02:51:45;;;;;;;9.65;1.83;;;14.70;99.90;;;;;;4994542;28;20176;-86
2022/07/08 02:54:13;;;;;;;9.30;2.10;;;14.70;99.90;;;;;;4994006;28;20211;-88
2022/07/08 02:56:39;;;;;;;7.18;1.83;;;14.70;99.90;;;;;;5010729;28;20171;-85
2022/07/08 02:59:04;;;;;;;14.52;3.35;;;14.70;99.90;;;;;;5010515;28;20233;-85
2022/07/08 03:01:31;;;;;;;10.60;2.25;;;14.70;99.90;;;;;;5010976;28;20211;-85
2022/07/08 03:03:58;;;;;;;14.20;2.40;;;14.70;99.90;;;;;;4994075;28;20563;-86
2022/07/08 03:06:23;;;;;;;10.52;2.60;;;14.70;99.90;;;;;;4994257;28;20186;-84
2022/07/08 03:08:49;;;;;;;9.98;1.90;;;14.70;99.90;;;;;;4990631;28;20176;-87
2022/07/08 03:11:15;;;;;;;8.95;1.73;;;14.70;99.90;;;;;;4983201;28;20536;-85
2022/07/08 03:13:43;;;;;;;8.93;2.35;;;14.70;99.90;;;;;;5010687;28;20215;-88
2022/07/08 03:16:08;;;;;;;10.00;1.70;;;14.60;99.90;;;;;;5012808;28;20180;-87
2022/07/08 03:18:35;;;;;;;15.98;2.17;;;14.70;99.90;;;;;;5014928;28;20259;-87
2022/07/08 03:21:03;;;;;;;7.55;1.70;;;14.70;99.90;;;;;;4998526;28;20183;-88
2022/07/08 03:23:32;;;;;;;10.20;2.08;;;14.70;99.90;;;;;;5014742;28;20518;-87
2022/07/08 03:25:57;;;;;;;11.63;2.38;;;14.70;99.90;;;;;;4998399;28;20207;-84
2022/07/08 03:28:23;;;;;;;7.10;1.52;;;14.70;99.90;;;;;;5014687;28;20187;-88
2022/07/08 03:30:49;;;;;;;7.80;1.90;;;14.70;99.90;;;;;;5014611;28;20180;-87
2022/07/08 03:33:16;;;;;;;10.02;1.95;;;14.70;99.90;;;;;;5014469;28;20247;-88
2022/07/08 03:35:42;;;;;;;9.40;1.73;;;14.70;99.90;;;;;;5014222;28;20191;-86
2022/07/08 03:38:07;;;;;;;8.10;2.17;;;14.70;99.90;;;;;;5014186;28;20195;-85
2022/07/08 03:43:18;;;;;;;9.68;2.00;;;14.60;99.90;;;;;;4999406;28;20207;-85
2022/07/08 03:45:44;;;;;;;10.98;2.05;;;14.70;99.90;;;;;;4997998;28;20626;-85
2022/07/08 03:48:09;;;;;;;10.32;1.88;;;14.70;99.90;;;;;;4997981;28;20188;-86
2022/07/08 03:50:35;;;;;;;12.25;1.85;;;14.70;99.90;;;;;;4998004;28;20186;-85
2022/07/08 03:53:01;;;;;;;13.65;2.58;;;14.60;99.90;;;;;;4997121;28;20187;-86
2022/07/08 03:55:27;;;;;;;13.73;1.73;;;14.60;99.90;;;;;;4996905;28;20211;-86
2022/07/08 03:57:53;;;;;;;7.93;1.70;;;14.50;99.90;;;;;;4997047;28;20230;-84
2022/07/08 04:00:19;;;;;;;8.45;2.13;;;14.50;99.90;;;;;;4997633;28;20184;-84
2022/07/08 04:02:45;;;;;;;7.68;1.48;;;14.40;99.90;;;;;;4997496;28;20188;-85
2022/07/08 04:05:22;;;;;;;10.95;1.85;;;14.50;99.90;;;;;;4997707;28;20175;-87
2022/07/08 04:07:48;;;;;;;8.02;2.13;;;14.50;99.90;;;;;;4997510;28;20187;-85
2022/07/08 04:10:14;;;;;;;13.48;1.90;;;14.50;99.90;;;;;;4998500;28;20169;-87
2022/07/08 04:12:40;;;;;;;12.65;2.30;;;14.50;99.90;;;;;;4997340;28;20183;-85
2022/07/08 04:15:07;;;;;;;8.65;1.83;;;14.60;99.90;;;;;;4997082;28;20215;-87
2022/07/08 04:17:34;;;;;;;7.57;1.58;;;14.50;99.90;;;;;;4997396;28;20180;-86
2022/07/08 04:19:59;;;;;;;13.75;1.73;;;14.60;99.90;;;;;;4997366;28;20767;-84
2022/07/08 04:22:25;;;;;;;10.32;1.80;;;14.60;99.90;;;;;;4998258;28;20211;-85
2022/07/08 04:24:57;;;;;;;9.43;1.80;;;14.60;99.90;;;;;;4996776;28;20176;-86
2022/07/08 04:27:22;;;;;;;14.90;2.05;;;14.60;99.90;;;;;;4996799;28;20180;-84
2022/07/08 04:29:48;;;;;;;7.32;1.80;;;14.60;99.90;;;;;;4996875;28;20214;-85
2022/07/08 04:32:14;;;;;;;12.00;2.05;;;14.60;99.90;;;;;;4996233;28;20273;-83
2022/07/08 04:34:40;;;;;;;7.28;1.75;;;14.70;99.90;;;;;;4996619;28;20658;-85
2022/07/08 04:37:06;;;;;;;10.23;1.63;;;14.70;99.90;;;;;;4996786;28;20176;-84
2022/07/08 04:39:32;;;;;;;14.00;2.03;;;14.70;99.90;;;;;;4996594;28;20199;-84
2022/07/08 04:41:58;;;;;;;15.57;2.10;;;14.70;99.90;;;;;;4997814;28;20182;-84
2022/07/08 04:44:23;;;;;;;10.32;2.22;;;14.60;99.90;;;;;;5012806;28;20180;-86
2022/07/08 04:46:49;;;;;;;12.93;2.05;;;14.60;99.90;;;;;;5004249;28;20176;-82
2022/07/08 04:49:16;;;;;;;6.75;2.00;;;14.70;99.90;;;;;;4976991;28;20191;-86
2022/07/08 04:51:41;;;;;;;9.10;1.90;;;14.70;99.90;;;;;;4977380;28;20512;-84
2022/07/08 04:54:10;;;;;;;6.45;1.73;;;14.70;99.90;;;;;;4976822;28;20208;-87
2022/07/08 04:56:36;;;;;;;10.98;2.00;;;14.70;99.90;;;;;;4976960;28;20188;-84
2022/07/08 04:59:01;;;;;;;8.77;1.60;;;14.70;99.90;;;;;;4992851;28;20729;-85
2022/07/08 05:01:27;;;;;;;14.13;2.42;;;14.80;99.90;;;;;;4976821;28;20683;-84
2022/07/08 05:03:54;;;;;;;7.88;1.40;;;14.80;99.90;;;;;;4992699;28;20192;-84
2022/07/08 05:06:20;;;;;;;10.95;1.52;;;14.80;99.90;;;;;;4977126;28;20666;-86
2022/07/08 05:08:46;;;;;;;9.32;1.58;;;14.80;99.90;;;;;;4977073;28;20566;-84
2022/07/08 05:11:11;;;;;;;10.38;2.42;;;14.80;99.90;;;;;;4976890;28;20176;-84
2022/07/08 05:13:37;;;;;;;8.23;1.65;;;14.90;99.90;;;;;;4976882;28;20212;-84
2022/07/08 05:16:03;;;;;;;10.65;2.25;;;14.90;99.90;;;;;;4976541;28;20228;-84
2022/07/08 05:18:29;;;;;;;10.48;2.25;;;14.90;99.90;;;;;;4988165;28;20187;-85
2022/07/08 05:20:54;;;;;;;9.98;1.50;;;15.00;99.90;;;;;;5008431;28;20189;-84
2022/07/08 05:23:20;;;;;;;11.15;1.85;;;15.00;99.90;;;;;;5006559;28;20172;-86
2022/07/08 05:25:46;;;;;;;9.52;1.80;;;15.10;99.90;;;;;;5011731;28;20271;-86
2022/07/08 05:28:12;;;;;;;10.00;2.08;;;15.10;99.90;;;;;;5010310;28;20211;-85
2022/07/08 05:30:38;;;;;;;5.22;1.45;;;15.20;99.90;;;;;;5010173;28;20204;-84
2022/07/08 05:33:04;;;;;;;6.80;1.98;;;15.20;99.90;;;;;;4995089;28;20184;-84
2022/07/08 05:35:30;;;;;;;7.68;1.85;;;15.20;99.90;;;;;;4994980;28;20214;-85
2022/07/08 05:37:56;;;;;;;8.25;1.60;;;15.20;99.90;;;;;;4998755;28;20168;-84
2022/07/08 05:40:22;;;;;;;9.82;1.65;;;15.30;99.90;;;;;;5001445;28;20243;-85
2022/07/08 05:42:47;;;;;;;9.95;2.00;;;15.40;99.90;;;;;;5011434;28;20179;-85
2022/07/08 05:45:13;;;;;;;14.13;1.98;;;15.40;99.90;;;;;;4994784;28;20199;-86
2022/07/08 05:47:39;;;;;;;9.40;2.22;;;15.40;99.90;;;;;;4993074;28;20207;-83
2022/07/08 05:50:05;;;;;;;10.77;2.00;;;15.50;99.90;;;;;;4994325;28;20184;-85
2022/07/08 05:52:31;;;;;;;8.35;2.05;;;15.60;99.90;;;;;;5010481;28;20199;-85
2022/07/08 05:54:57;;;;;;;12.02;1.95;;;15.60;99.90;;;;;;5008966;28;20230;-84
2022/07/08 05:57:23;;;;;;;9.02;1.70;;;15.60;99.90;;;;;;5010290;28;20291;-83
2022/07/08 05:59:50;;;;;;;10.20;1.88;;;15.70;99.90;;;;;;4995481;28;20230;-84
2022/07/08 06:02:17;;;;;;;11.00;2.67;;;15.70;99.90;;;;;;4995823;28;20183;-85
2022/07/08 06:04:43;;;;;;;12.82;1.67;;;15.80;99.90;;;;;;4994295;28;20190;-85
2022/07/08 06:07:08;;;;;;;8.90;1.95;;;15.80;99.90;;;;;;5010726;28;20172;-85
2022/07/08 06:09:34;;;;;;;15.35;1.92;;;15.80;99.90;;;;;;5002897;28;20500;-85
2022/07/08 06:12:00;;;;;;;7.25;1.77;;;15.80;99.90;;;;;;5010662;28;20176;-86
2022/07/08 06:14:26;;;;;;;9.15;1.85;;;15.90;99.90;;;;;;5010487;28;20306;-84
2022/07/08 06:16:52;;;;;;;8.18;1.90;;;15.90;99.90;;;;;;5010880;28;20259;-82
2022/07/08 06:19:17;;;;;;;12.23;1.83;;;16.00;99.90;;;;;;5006531;28;20504;-85
2022/07/08 06:21:43;;;;;;;10.85;1.63;;;16.00;99.90;;;;;;4991189;28;20188;-84
2022/07/08 06:24:09;;;;;;;12.18;2.30;;;16.00;99.90;;;;;;4992695;28;20176;-85
2022/07/08 06:26:36;;;;;;;9.00;1.60;;;15.90;99.90;;;;;;5005562;28;20315;-83
2022/07/08 06:29:03;;;;;;;8.80;1.77;;;15.90;99.90;;;;;;4995906;28;20583;-83
2022/07/08 06:31:28;;;;;;;10.88;1.67;;;16.00;99.90;;;;;;5010282;28;20180;-83
2022/07/08 06:33:57;;;;;;;10.82;1.65;;;16.00;99.90;;;;;;5009842;28;20204;-84
2022/07/08 06:36:26;;;;;;;7.70;1.83;;;16.00;99.90;;;;;;4993872;28;20561;-84
2022/07/08 06:38:53;;;;;;;12.68;1.70;;;16.00;99.90;;;;;;4993764;28;20188;-84
2022/07/08 06:41:19;;;;;;;7.13;1.40;;;16.10;99.90;;;;;;4993714;28;20182;-84
2022/07/08 06:43:45;;;;;;;6.00;1.63;;;16.10;99.90;;;;;;5009862;28;20180;-82
2022/07/08 06:46:11;;;;;;;7.50;2.03;;;16.20;99.90;;;;;;5009773;28;20528;-83
2022/07/08 06:48:37;;;;;;;8.20;1.60;;;16.30;99.90;;;;;;5010026;28;20216;-84
2022/07/08 06:51:03;;;;;;;8.90;1.63;;;16.40;99.90;;;;;;4998858;28;20227;-84
2022/07/08 06:54:34;;;;;;;10.48;1.70;;;16.50;99.90;;;;;;5008466;28;20278;-86
2022/07/08 06:56:14;;;;;;;5.70;1.27;;;16.50;99.90;;;;;;4992692;28;20294;-84
2022/07/08 06:58:40;;;;;;;7.65;1.33;;;16.60;99.90;;;;;;5003543;28;20252;-85
2022/07/08 07:01:06;;;;;;;6.65;1.17;;;16.60;99.90;;;;;;5000021;28;20274;-84
2022/07/08 07:03:31;;;;;;;5.05;1.02;;;16.70;99.90;;;;;;4983902;28;20173;-83
2022/07/08 07:05:57;;;;;;;6.07;1.27;;;16.80;99.90;;;;;;4988679;28;20184;-85
2022/07/08 07:08:23;;;;;;;4.88;1.15;;;16.80;99.90;;;;;;4990439;28;20236;-83
2022/07/08 07:10:48;;;;;;;7.13;1.08;;;16.80;99.90;;;;;;5008708;28;20635;-83
2022/07/08 07:13:14;;;;;;;7.57;1.67;;;16.80;99.90;;;;;;5009573;28;20634;-84
2022/07/08 07:15:40;;;;;;;5.00;1.40;;;16.80;99.90;;;;;;5009356;28;20265;-85
2022/07/08 07:18:06;;;;;;;4.88;1.23;;;16.80;99.90;;;;;;5009741;28;20191;-85
2022/07/08 07:20:31;;;;;;;5.13;1.60;;;16.80;99.90;;;;;;5009428;28;20639;-84
2022/07/08 07:22:57;;;;;;;7.85;1.60;;;16.70;99.90;;;;;;4994381;28;20179;-86
2022/07/08 07:25:23;;;;;;;7.63;1.30;;;16.70;99.90;;;;;;5005454;28;20199;-85
2022/07/08 07:27:48;;;;;;;5.72;1.50;;;16.60;99.90;;;;;;4993450;28;20188;-83
2022/07/08 07:30:14;;;;;;;8.27;1.77;;;16.60;99.90;;;;;;4994491;28;20195;-87
2022/07/08 07:32:40;;;;;;;6.95;1.58;;;16.70;99.90;;;;;;4993628;28;20180;-84
2022/07/08 07:35:06;;;;;;;9.40;1.63;;;16.70;99.90;;;;;;4993315;28;20738;-86
2022/07/08 07:37:36;;;;;;;6.88;1.30;;;16.70;99.90;;;;;;4993432;28;20180;-87
2022/07/08 07:40:06;;;;;;;4.95;1.08;;;16.70;99.90;;;;;;4993346;28;20195;-87
2022/07/08 07:42:32;;;;;;;10.50;1.73;;;16.70;99.90;;;;;;5009768;28;20266;-87
2022/07/08 07:44:58;;;;;;;6.45;1.60;;;16.90;99.90;;;;;;5009989;28;20261;-87
2022/07/08 07:47:24;;;;;;;8.38;1.60;;;16.90;99.90;;;;;;5009845;28;20176;-83
2022/07/08 07:49:52;;;;;;;8.00;2.03;;;16.90;99.90;;;;;;5008371;28;20179;-86
2022/07/08 07:52:18;;;;;;;4.63;1.13;;;16.90;99.90;;;;;;4993397;28;20176;-83
2022/07/08 07:54:44;;;;;;;7.13;1.70;;;16.90;99.90;;;;;;4992708;28;20211;-87
2022/07/08 07:57:10;;;;;;;11.45;1.63;;;16.90;99.90;;;;;;4993305;28;20176;-83
2022/07/08 07:59:37;;;;;;;8.23;1.92;;;16.90;99.90;;;;;;4987852;28;20231;-84
2022/07/08 08:02:04;;;;;;;8.52;1.50;;;16.90;99.80;;;;;;4999111;28;20596;-85
2022/07/08 08:04:30;;;;;;;6.95;1.40;;;16.90;99.90;;;;;;5003109;28;20763;-86
2022/07/08 08:06:55;;;;;;;5.07;1.30;;;17.00;99.70;;;;;;4985865;28;20177;-83
2022/07/08 08:09:21;;;;;;;5.82;1.40;;;17.10;99.90;;;;;;5003103;28;20539;-82
2022/07/08 08:11:47;;;;;;;7.38;1.42;;;17.10;99.90;;;;;;4994308;28;20183;-85
2022/07/08 08:14:12;;;;;;;6.30;1.42;;;17.10;99.90;;;;;;4987652;28;20200;-84
2022/07/08 08:16:38;;;;;;;10.73;1.98;;;17.30;99.90;;;;;;5003976;28;20192;-85
2022/07/08 08:19:04;;;;;;;7.65;1.30;;;17.40;99.10;;;;;;4995547;28;20175;-85
2022/07/08 08:21:30;;;;;;;11.60;1.77;;;17.40;99.90;;;;;;4996322;28;20199;-87
2022/07/08 08:23:56;;;;;;;6.43;0.95;;;17.50;99.90;;;;;;4995888;28;20175;-86
2022/07/08 08:26:22;;;;;;;10.10;1.52;;;17.50;99.90;;;;;;4996012;28;20187;-85
2022/07/08 08:28:49;;;;;;;13.00;1.83;;;17.90;99.90;;;;;;5005423;28;20176;-85
2022/07/08 08:31:15;;;;;;;8.25;1.55;;;18.20;99.10;;;;;;4998287;28;20182;-85
2022/07/08 08:33:40;;;;;;;7.18;1.75;;;18.20;97.70;;;;;;4996916;28;20274;-85
2022/07/08 08:36:07;;;;;;;6.05;1.27;;;18.20;98.90;;;;;;5010171;28;20192;-85
2022/07/08 08:38:32;;;;;;;5.72;1.50;;;18.10;99.20;;;;;;4995701;28;20241;-88
2022/07/08 08:41:01;;;;;;;8.00;1.58;;;18.20;99.90;;;;;;5011961;28;20532;-84
2022/07/08 08:43:27;;;;;;;10.32;1.42;;;18.30;99.50;;;;;;4999469;28;20178;-86
2022/07/08 08:45:54;;;;;;;13.18;1.67;;;18.30;99.30;;;;;;4996086;28;20191;-86
2022/07/08 08:48:25;;;;;;;7.28;1.55;;;18.40;99.90;;;;;;5007655;28;20180;-87
2022/07/08 08:50:55;;;;;;;14.32;1.55;;;18.50;99.20;;;;;;4995623;28;20232;-84
2022/07/08 08:53:30;;;;;;;8.68;1.63;;;18.40;98.10;;;;;;4994831;28;20175;-85
2022/07/08 08:55:57;;;;;;;5.05;1.83;;;18.40;99.20;;;;;;4989330;28;20187;-85
2022/07/08 08:58:24;;;;;;;13.30;2.08;;;18.60;98.10;;;;;;5006667;28;20310;-86
2022/07/08 09:00:49;;;;;;;8.32;1.30;;;18.70;97.50;;;;;;4988117;28;20184;-84
2022/07/08 09:03:15;;;;;;;11.80;1.55;;;18.80;98.30;;;;;;4998944;28;20183;-86
2022/07/08 09:05:41;;;;;;;7.13;1.80;;;19.10;99.00;;;;;;4995473;28;20526;-86
2022/07/08 09:08:07;;;;;;;4.85;1.33;;;19.40;98.70;;;;;;4995128;28;20176;-85
2022/07/08 09:10:34;;;;;;;6.32;1.27;;;19.70;98.20;;;;;;4995143;28;20183;-87
2022/07/08 09:13:07;;;;;;;4.10;1.40;;;19.80;97.50;;;;;;5001324;28;20573;-84
2022/07/08 09:15:41;;;;;;;5.35;1.42;;;19.50;96.10;;;;;;4994982;28;20510;-87
2022/07/08 09:18:09;;;;;;;11.93;2.13;;;19.60;97.50;;;;;;4995086;28;20196;-84
2022/07/08 09:20:45;;;;;;;20.33;2.40;;;19.80;96.80;;;;;;4989919;28;20186;-85
2022/07/08 09:23:19;;;;;;;21.20;2.38;;;19.90;95.70;;;;;;5011011;28;20634;-84
2022/07/08 09:25:47;;;;;;;15.18;2.10;;;19.90;96.50;;;;;;5003411;28;20624;-90
2022/07/08 09:28:15;;;;;;;14.48;2.00;;;19.70;97.20;;;;;;4995025;28;20179;-86
2022/07/08 09:30:44;;;;;;;15.40;1.90;;;19.60;96.70;;;;;;5003353;28;20219;-85
2022/07/08 09:33:11;;;;;;;9.05;1.40;;;19.40;96.30;;;;;;5003253;28;20213;-85
2022/07/08 09:35:39;;;;;;;10.30;1.40;;;19.60;97.70;;;;;;4984125;28;20235;-85
2022/07/08 09:38:06;;;;;;;7.57;1.20;;;19.60;97.10;;;;;;4994073;28;20184;-85
2022/07/08 09:40:33;;;;;;;4.93;1.50;;;19.80;96.80;;;;;;4993947;28;20188;-87
2022/07/08 09:43:14;;;;;;;8.10;1.77;;;20.10;96.20;;;;;;5103178;27;20559;-83
2022/07/08 09:45:40;;;;;;;6.95;2.05;;;20.10;95.20;;;;;;5089449;28;20180;-83
2022/07/08 09:48:08;;;;;;;7.40;1.38;;;20.00;94.60;;;;;;5091148;28;20176;-83
2022/07/08 09:50:46;;;;;;;5.72;1.45;;;19.50;94.80;;;;;;5080369;28;20563;-83
2022/07/08 09:53:23;;;;;;;9.90;1.58;;;19.50;95.80;;;;;;5078478;28;20184;-84
2022/07/08 09:55:54;;;;;;;6.47;1.20;;;19.70;97.40;;;;;;5069063;28;20208;-84
2022/07/08 09:58:23;;;;;;;5.50;1.65;;;20.10;97.70;;;;;;5069615;28;20567;-84
2022/07/08 10:00:53;;;;;;;3.75;0.93;;;20.60;97.30;;;;;;5069395;28;20234;-83
2022/07/08 10:03:20;;;;;;;4.90;1.25;;;20.90;96.70;;;;;;5069715;28;20185;-84
2022/07/08 10:05:46;;;;;;;10.40;1.60;;;20.90;94.60;;;;;;5069933;28;20256;-86
2022/07/08 10:08:13;;;;;;;6.90;1.38;;;20.90;95.40;;;;;;5069668;28;20283;-85
2022/07/08 10:10:41;;;;;;;7.68;1.48;;;20.90;94.30;;;;;;5069313;28;20173;-84
2022/07/08 10:13:06;;;;;;;6.57;1.40;;;20.80;95.00;;;;;;5069328;28;20185;-85
2022/07/08 10:15:35;;;;;;;7.55;1.50;;;20.90;94.30;;;;;;5069463;28;20272;-85
2022/07/08 10:18:10;;;;;;;7.20;1.42;;;21.00;94.90;;;;;;5068042;28;20176;-88
2022/07/08 10:20:38;;;;;;;6.30;1.40;;;20.90;95.40;;;;;;5070915;28;20185;-87
2022/07/08 10:23:10;;;;;;;4.90;1.50;;;21.10;96.00;;;;;;5050764;28;20664;-86
2022/07/08 10:25:37;;;;;;;6.63;1.67;;;21.10;94.40;;;;;;5068922;28;20189;-88
2022/07/08 10:28:10;;;;;;;4.45;1.17;;;20.90;94.50;;;;;;5052852;28;20189;-88
2022/07/08 10:30:50;;;;;;;8.00;1.40;;;20.90;95.30;;;;;;5069023;28;20170;-86
2022/07/08 10:33:23;;;;;;;5.55;1.75;;;20.70;95.50;;;;;;5069901;28;20272;-87
2022/07/08 10:36:04;;;;;;;6.15;1.48;;;20.50;94.90;;;;;;5074970;28;20170;-85
2022/07/08 10:38:38;;;;;;;6.30;1.17;;;20.30;95.10;;;;;;5066335;28;20534;-85
2022/07/08 10:41:07;;;;;;;8.23;1.48;;;20.30;97.80;;;;;;5067805;28;20234;-86
2022/07/08 10:43:33;;;;;;;9.57;1.70;;;20.40;95.40;;;;;;5069167;28;20185;-84
2022/07/08 10:46:11;;;;;;;5.60;1.63;;;20.30;95.40;;;;;;5068453;28;20255;-88
2022/07/08 10:48:39;;;;;;;9.13;1.52;;;20.20;95.80;;;;;;5068732;28;20174;-84
2022/07/08 10:51:06;;;;;;;5.13;1.17;;;20.10;95.90;;;;;;5063527;28;20520;-85
2022/07/08 10:53:50;;;;;;;7.88;1.88;;;20.00;95.50;;;;;;5042640;28;20273;-86
2022/07/08 10:56:43;;;;;;;5.50;1.52;;;20.00;96.20;;;;;;5052529;28;20178;-86
2022/07/08 10:59:27;;;;;;;5.65;1.65;;;20.00;96.20;;;;;;5051557;28;20181;-84
2022/07/08 11:01:58;;;;;;;6.55;1.65;;;20.30;96.70;;;;;;5053702;28;20227;-84
2022/07/08 11:04:36;;;;;;;7.22;1.63;;;20.40;95.30;;;;;;5054711;28;20162;-84
2022/07/08 11:09:44;;;;;;;9.88;1.73;;;20.40;96.10;;;;;;5051934;28;20178;-83
2022/07/08 11:12:19;;;;;;;10.32;1.60;;;20.40;97.30;;;;;;5052330;28;20208;-85
2022/07/08 11:14:46;;;;;;;3.63;1.35;;;20.50;97.30;;;;;;5053961;28;20475;-83
2022/07/08 11:17:20;;;;;;;5.55;1.10;;;20.60;96.40;;;;;;5052752;28;20181;-83
2022/07/08 11:19:47;;;;;;;5.70;1.48;;;20.50;96.60;;;;;;5052057;28;20178;-86
2022/07/08 11:22:14;;;;;;;4.32;1.10;;;20.50;97.20;;;;;;5054053;28;20206;-86
2022/07/08 11:24:43;;;;;;;3.60;1.27;;;20.40;96.30;;;;;;5053859;28;20182;-85
2022/07/08 11:27:09;;;;;;;7.53;1.20;;;20.40;97.00;;;;;;5054212;28;20239;-84
2022/07/08 11:29:35;;;;;;;5.55;1.30;;;20.40;97.60;;;;;;5057122;28;20174;-85
2022/07/08 11:32:03;;;;;;;7.07;1.70;;;20.60;97.20;;;;;;5057579;28;20225;-87
2022/07/08 11:34:29;;;;;;;5.15;1.38;;;20.60;97.00;;;;;;5054802;28;20261;-84
2022/07/08 11:37:01;;;;;;;8.57;1.63;;;20.70;97.90;;;;;;5054807;28;20268;-86
2022/07/08 11:39:27;;;;;;;2.42;0.98;;;20.80;97.30;;;;;;5054535;28;20174;-83
2022/07/08 11:41:54;;;;;;;3.75;1.20;;;20.80;97.30;;;;;;5066641;28;20671;-85
2022/07/08 11:44:22;;;;;;;3.85;1.02;;;20.90;96.90;;;;;;5074086;28;20173;-84
2022/07/08 11:46:51;;;;;;;4.50;1.38;;;20.80;97.50;;;;;;5066491;28;20605;-83
2022/07/08 11:49:18;;;;;;;6.13;1.38;;;20.80;97.60;;;;;;5054242;28;20247;-87
2022/07/08 11:51:48;;;;;;;6.68;1.42;;;20.70;97.90;;;;;;5055296;28;20593;-85
2022/07/08 11:54:15;;;;;;;5.43;1.70;;;20.50;96.60;;;;;;5054603;28;20509;-85
2022/07/08 11:56:42;;;;;;;3.53;1.25;;;20.50;98.00;;;;;;5053087;28;20206;-83
2022/07/08 11:59:08;;;;;;;3.03;0.98;;;20.50;97.60;;;;;;5054270;28;20515;-89
2022/07/08 12:01:35;;;;;;;5.10;1.13;;;20.30;97.70;;;;;;5054087;28;20292;-86
2022/07/08 12:04:06;;;;;;;6.63;1.40;;;20.30;98.20;;;;;;5053027;28;20186;-82
2022/07/08 12:06:34;;;;;;;6.97;1.33;;;20.30;97.20;;;;;;5054423;28;20174;-83
2022/07/08 12:09:09;;;;;;;3.63;1.13;;;20.40;97.80;;;;;;5053724;28;20197;-85
2022/07/08 12:11:43;;;;;;;4.65;1.25;;;20.40;97.80;;;;;;5054175;28;20239;-86
2022/07/08 12:14:10;;;;;;;4.22;1.30;;;20.40;98.30;;;;;;5054034;28;20188;-87
2022/07/08 12:16:51;;;;;;;11.82;1.45;;;20.50;98.00;;;;;;5054285;28;20292;-86
2022/07/08 12:19:34;;;;;;;6.32;1.30;;;20.40;98.10;;;;;;5052762;28;20182;-84
2022/07/08 12:22:05;;;;;;;5.97;1.20;;;20.40;97.90;;;;;;5055120;28;20205;-84
2022/07/08 12:24:36;;;;;;;3.80;1.48;;;20.40;99.40;;;;;;5053453;28;20273;-85
2022/07/08 12:27:06;;;;;;;3.83;1.17;;;20.40;97.60;;;;;;5052998;28;20193;-82
2022/07/08 12:29:40;;;;;;;6.00;1.42;;;20.40;97.40;;;;;;5052103;28;20202;-83
2022/07/08 12:32:07;;;;;;;5.22;1.20;;;20.40;98.40;;;;;;5054493;28;20166;-85
2022/07/08 12:34:33;;;;;;;4.07;1.10;;;20.40;97.40;;;;;;5052331;28;20166;-84
2022/07/08 12:37:19;;;;;;;4.72;1.20;;;20.30;98.50;;;;;;5053760;28;20181;-84
2022/07/08 12:39:46;;;;;;;6.10;1.30;;;20.30;98.80;;;;;;5052662;28;20193;-83
2022/07/08 12:42:12;;;;;;;3.15;0.73;;;20.40;98.80;;;;;;5049947;28;20643;-84
2022/07/08 12:44:48;;;;;;;4.07;1.27;;;20.40;97.80;;;;;;5054071;28;20197;-84
2022/07/08 12:47:14;;;;;;;4.20;1.30;;;20.60;98.50;;;;;;5053245;28;20186;-84
2022/07/08 12:49:42;;;;;;;4.43;1.30;;;20.50;97.70;;;;;;5052687;28;20224;-83